createdAt,value
2018-12-19T00:01:50.747Z,57.00
2018-12-19T00:04:19.021Z,56.40
2018-12-19T00:06:47.317Z,56.40
2018-12-19T00:09:15.626Z,56.40
2018-12-19T00:11:43.935Z,56.40
2018-12-19T00:14:12.338Z,56.40
2018-12-19T00:16:40.621Z,56.40
2018-12-19T00:19:08.913Z,56.40
2018-12-19T00:21:37.207Z,56.40
2018-12-19T00:24:05.513Z,56.40
2018-12-19T00:26:33.826Z,56.40
2018-12-19T00:29:02.232Z,56.80
2018-12-19T00:31:30.669Z,56.30
2018-12-19T00:33:58.987Z,56.00
2018-12-19T00:36:27.378Z,56.20
2018-12-19T00:38:55.653Z,56.20
2018-12-19T00:41:23.989Z,56.40
2018-12-19T00:43:52.303Z,56.40
2018-12-19T00:46:20.587Z,56.40
2018-12-19T00:48:48.849Z,56.40
2018-12-19T00:51:17.141Z,56.40
2018-12-19T00:53:45.434Z,56.40
2018-12-19T00:56:13.765Z,56.30
2018-12-19T00:58:42.060Z,56.30
2018-12-19T01:01:10.342Z,56.40
2018-12-19T01:03:38.610Z,56.50
2018-12-19T01:06:06.899Z,56.30
2018-12-19T01:08:35.256Z,56.30
2018-12-19T01:11:03.645Z,56.30
2018-12-19T01:13:31.927Z,56.30
2018-12-19T01:16:00.365Z,56.40
2018-12-19T01:18:28.661Z,56.40
2018-12-19T01:20:56.986Z,56.90
2018-12-19T01:23:25.259Z,56.30
2018-12-19T01:25:53.538Z,56.30
2018-12-19T01:28:21.864Z,56.40
2018-12-19T01:30:50.174Z,56.30
2018-12-19T01:33:18.472Z,56.30
2018-12-19T01:35:46.740Z,56.40
2018-12-19T01:38:15.075Z,56.30
2018-12-19T01:40:43.368Z,56.40
2018-12-19T01:43:11.670Z,56.40
2018-12-19T01:45:40.002Z,56.30
2018-12-19T01:48:08.396Z,56.40
2018-12-19T01:50:36.740Z,56.30
2018-12-19T01:53:05.040Z,56.30
2018-12-19T01:55:33.348Z,56.30
2018-12-19T01:58:01.645Z,56.40
2018-12-19T02:00:32.368Z,56.90
2018-12-19T02:03:01.049Z,56.30
2018-12-19T02:05:29.390Z,56.30
2018-12-19T02:07:57.736Z,56.30
2018-12-19T02:10:26.021Z,56.30
2018-12-19T02:12:54.339Z,56.30
2018-12-19T02:15:22.627Z,56.30
2018-12-19T02:17:50.924Z,56.30
2018-12-19T02:20:19.218Z,56.50
2018-12-19T02:22:47.497Z,56.40
2018-12-19T02:25:15.888Z,56.30
2018-12-19T02:27:44.195Z,56.30
2018-12-19T02:30:12.475Z,56.30
2018-12-19T02:32:40.764Z,56.20
2018-12-19T02:35:09.058Z,56.20
2018-12-19T02:37:37.336Z,56.30
2018-12-19T02:40:05.732Z,56.30
2018-12-19T02:42:34.027Z,56.30
2018-12-19T02:45:02.327Z,56.30
2018-12-19T02:47:30.635Z,56.30
2018-12-19T02:49:58.939Z,56.30
2018-12-19T02:52:27.242Z,56.30
2018-12-19T02:54:55.553Z,56.30
2018-12-19T02:57:23.877Z,56.40
2018-12-19T02:59:52.187Z,56.50
2018-12-19T03:02:20.466Z,56.30
2018-12-19T03:04:48.761Z,56.30
2018-12-19T03:07:17.047Z,56.30
2018-12-19T03:09:45.341Z,56.30
2018-12-19T03:12:13.617Z,56.30
2018-12-19T03:14:41.892Z,56.30
2018-12-19T03:17:10.197Z,56.50
2018-12-19T03:19:38.480Z,56.20
2018-12-19T03:22:06.779Z,56.30
2018-12-19T03:24:35.091Z,56.30
2018-12-19T03:27:03.378Z,56.30
2018-12-19T03:29:31.707Z,56.20
2018-12-19T03:32:00.009Z,56.20
2018-12-19T03:34:28.372Z,56.40
2018-12-19T03:36:56.669Z,56.40
2018-12-19T03:39:24.981Z,56.40
2018-12-19T03:41:53.270Z,56.40
2018-12-19T03:44:21.561Z,56.30
2018-12-19T03:46:49.867Z,56.30
2018-12-19T03:49:18.654Z,56.30
2018-12-19T03:51:47.280Z,56.30
2018-12-19T03:54:15.857Z,56.40
2018-12-19T03:56:44.432Z,56.60
2018-12-19T03:59:12.733Z,56.20
2018-12-19T04:01:41.110Z,56.40
2018-12-19T04:04:09.414Z,56.30
2018-12-19T04:06:37.714Z,56.30
2018-12-19T04:09:07.052Z,56.30
2018-12-19T04:11:35.371Z,56.30
2018-12-19T04:14:03.650Z,56.20
2018-12-19T04:16:31.964Z,56.20
2018-12-19T04:19:00.236Z,56.30
2018-12-19T04:21:28.546Z,56.20
2018-12-19T04:23:56.822Z,56.30
2018-12-19T04:26:25.094Z,56.20
2018-12-19T04:28:53.379Z,56.30
2018-12-19T04:31:21.650Z,56.30
2018-12-19T04:33:49.946Z,56.50
2018-12-19T04:36:18.313Z,56.50
2018-12-19T04:38:46.925Z,56.40
2018-12-19T04:41:15.199Z,56.40
2018-12-19T04:43:43.458Z,56.40
2018-12-19T04:46:11.758Z,56.40
2018-12-19T04:48:40.025Z,56.50
2018-12-19T04:51:08.289Z,56.50
2018-12-19T04:53:36.573Z,56.60
2018-12-19T04:56:04.853Z,56.60
2018-12-19T04:58:33.135Z,56.50
2018-12-19T05:01:01.425Z,56.30
2018-12-19T05:03:29.810Z,56.40
2018-12-19T05:05:58.086Z,56.40
2018-12-19T05:08:26.407Z,56.50
2018-12-19T05:10:54.666Z,56.40
2018-12-19T05:13:23.050Z,56.40
2018-12-19T05:15:51.369Z,56.50
2018-12-19T05:18:19.659Z,56.50
2018-12-19T05:20:47.951Z,56.40
2018-12-19T05:23:16.219Z,56.40
2018-12-19T05:25:44.499Z,56.40
2018-12-19T05:28:12.787Z,56.40
2018-12-19T05:30:41.083Z,56.50
2018-12-19T05:33:09.371Z,56.40
2018-12-19T05:35:37.665Z,56.40
2018-12-19T05:38:05.961Z,56.40
2018-12-19T05:40:34.253Z,56.30
2018-12-19T05:43:02.528Z,55.80
2018-12-19T05:45:30.842Z,56.30
2018-12-19T05:47:59.105Z,56.30
2018-12-19T05:50:29.183Z,56.40
2018-12-19T05:52:57.475Z,56.40
2018-12-19T05:55:25.767Z,56.40
2018-12-19T05:57:54.055Z,56.30
2018-12-19T06:00:22.347Z,56.30
2018-12-19T06:02:50.612Z,56.30
2018-12-19T06:05:18.887Z,56.40
2018-12-19T06:07:47.194Z,56.40
2018-12-19T06:10:15.455Z,56.30
2018-12-19T06:12:43.753Z,56.30
2018-12-19T06:15:12.012Z,56.30
2018-12-19T06:17:40.425Z,56.30
2018-12-19T06:20:08.729Z,56.30
2018-12-19T06:22:37.018Z,56.30
2018-12-19T06:25:05.390Z,56.40
2018-12-19T06:27:33.635Z,56.40
2018-12-19T06:30:01.952Z,56.50
2018-12-19T06:32:30.238Z,56.50
2018-12-19T06:34:58.564Z,56.50
2018-12-19T06:37:26.843Z,56.50
2018-12-19T06:39:55.127Z,56.50
2018-12-19T06:42:23.399Z,56.40
2018-12-19T06:44:51.699Z,56.40
2018-12-19T06:47:20.013Z,56.50
2018-12-19T06:49:48.293Z,57.10
2018-12-19T06:52:16.611Z,56.60
2018-12-19T06:54:44.882Z,56.50
2018-12-19T06:57:13.172Z,56.30
2018-12-19T06:59:41.449Z,56.30
2018-12-19T07:02:09.741Z,56.30
2018-12-19T07:04:38.037Z,56.40
2018-12-19T07:07:06.325Z,56.30
2018-12-19T07:09:34.619Z,56.30
2018-12-19T07:12:02.888Z,56.30
2018-12-19T07:14:31.178Z,56.30
2018-12-19T07:16:59.717Z,56.30
2018-12-19T07:19:28.028Z,56.30
2018-12-19T07:21:56.321Z,56.40
2018-12-19T07:24:24.604Z,56.40
2018-12-19T07:26:52.973Z,56.50
2018-12-19T07:29:21.293Z,56.50
2018-12-19T07:31:49.567Z,56.50
2018-12-19T07:34:17.858Z,56.50
2018-12-19T07:36:46.130Z,56.50
2018-12-19T07:39:14.465Z,56.40
2018-12-19T07:41:42.739Z,56.40
2018-12-19T07:44:11.043Z,56.40
2018-12-19T07:46:39.369Z,56.40
2018-12-19T07:49:07.651Z,56.50
2018-12-19T07:51:35.939Z,56.50
2018-12-19T07:54:04.217Z,56.40
2018-12-19T07:56:32.537Z,56.40
2018-12-19T07:59:00.831Z,56.40
2018-12-19T08:01:29.136Z,56.40
2018-12-19T08:03:57.397Z,56.40
2018-12-19T08:06:25.715Z,56.50
2018-12-19T08:08:55.231Z,56.50
2018-12-19T08:11:23.531Z,56.60
2018-12-19T08:13:51.846Z,56.50
2018-12-19T08:16:20.159Z,56.40
2018-12-19T08:18:48.438Z,56.40
2018-12-19T08:21:16.773Z,56.30
2018-12-19T08:23:45.069Z,56.30
2018-12-19T08:26:13.399Z,56.40
2018-12-19T08:28:42.205Z,56.50
2018-12-19T08:31:10.535Z,56.50
2018-12-19T08:33:38.907Z,56.40
2018-12-19T08:36:07.203Z,56.40
2018-12-19T08:38:35.494Z,56.40
2018-12-19T08:41:03.771Z,56.40
2018-12-19T08:43:32.065Z,57.00
2018-12-19T08:46:00.623Z,57.40
2018-12-19T08:48:28.907Z,56.60
2018-12-19T08:50:57.187Z,56.50
2018-12-19T08:53:25.467Z,57.10
2018-12-19T08:55:53.767Z,56.50
2018-12-19T08:58:22.083Z,56.40
2018-12-19T09:00:52.321Z,56.40
2018-12-19T09:03:20.631Z,56.40
2018-12-19T09:05:48.900Z,56.40
2018-12-19T09:08:17.199Z,56.50
2018-12-19T09:10:45.472Z,56.60
2018-12-19T09:13:13.783Z,56.50
2018-12-19T09:15:47.572Z,56.50
2018-12-19T09:18:15.866Z,56.50
2018-12-19T09:20:44.265Z,56.50
2018-12-19T09:23:12.561Z,56.60
2018-12-19T09:25:40.857Z,56.60
2018-12-19T09:28:09.495Z,56.60
2018-12-19T09:30:37.777Z,56.70
2018-12-19T09:33:06.072Z,56.70
2018-12-19T09:35:34.361Z,56.80
2018-12-19T09:38:02.722Z,56.70
2018-12-19T09:40:31.309Z,56.70
2018-12-19T09:42:59.614Z,56.50
2018-12-19T09:45:27.920Z,56.40
2018-12-19T09:47:56.208Z,56.30
2018-12-19T09:50:24.481Z,56.10
2018-12-19T09:52:52.765Z,56.00
2018-12-19T09:55:21.093Z,55.90
2018-12-19T09:57:49.387Z,55.70
2018-12-19T10:00:23.074Z,55.60
2018-12-19T10:02:51.369Z,55.60
2018-12-19T10:05:19.823Z,55.70
2018-12-19T10:07:48.115Z,55.70
2018-12-19T10:10:16.388Z,55.80
2018-12-19T10:12:44.708Z,55.80
2018-12-19T10:15:12.996Z,56.20
2018-12-19T10:17:41.287Z,56.20
2018-12-19T10:20:09.606Z,56.30
2018-12-19T10:22:37.907Z,56.40
2018-12-19T10:25:11.861Z,56.60
2018-12-19T10:27:40.174Z,56.40
2018-12-19T10:30:10.472Z,56.40
2018-12-19T10:32:38.787Z,56.50
2018-12-19T10:35:08.045Z,56.60
2018-12-19T10:37:36.357Z,56.60
2018-12-19T10:40:06.862Z,56.50
2018-12-19T10:42:35.231Z,56.50
2018-12-19T10:45:03.656Z,56.40
2018-12-19T10:47:31.965Z,56.40
2018-12-19T10:50:00.273Z,56.40
2018-12-19T10:52:28.547Z,56.50
2018-12-19T10:54:56.833Z,56.50
2018-12-19T10:57:25.168Z,56.50
2018-12-19T10:59:53.473Z,56.50
2018-12-19T11:02:21.814Z,56.50
2018-12-19T11:04:50.226Z,56.60
2018-12-19T11:07:18.527Z,56.60
2018-12-19T11:09:46.829Z,56.70
2018-12-19T11:12:15.129Z,56.90
2018-12-19T11:14:43.528Z,56.70
2018-12-19T11:17:11.843Z,57.30
2018-12-19T11:19:40.165Z,56.70
2018-12-19T11:22:10.815Z,56.60
2018-12-19T11:24:39.563Z,56.50
2018-12-19T11:27:07.874Z,56.70
2018-12-19T11:29:36.188Z,56.80
2018-12-19T11:32:04.482Z,56.80
2018-12-19T11:34:32.791Z,57.30
2018-12-19T11:37:01.217Z,56.70
2018-12-19T11:39:29.495Z,56.70
2018-12-19T11:41:57.815Z,56.70
2018-12-19T11:44:27.060Z,56.70
2018-12-19T11:46:55.345Z,56.70
2018-12-19T11:49:23.671Z,57.00
2018-12-19T11:51:51.974Z,57.40
2018-12-19T11:54:20.326Z,57.70
2018-12-19T11:56:48.624Z,57.50
2018-12-19T11:59:16.911Z,57.90
2018-12-19T12:01:45.196Z,58.80
2018-12-19T12:04:13.478Z,57.20
2018-12-19T12:06:41.772Z,57.00
2018-12-19T12:09:10.061Z,57.00
2018-12-19T12:11:38.411Z,56.80
2018-12-19T12:14:06.685Z,56.80
2018-12-19T12:16:34.998Z,56.80
2018-12-19T12:19:03.275Z,56.80
2018-12-19T12:21:31.678Z,56.80
2018-12-19T12:23:59.994Z,56.80
2018-12-19T12:26:28.302Z,56.90
2018-12-19T12:28:56.598Z,57.00
2018-12-19T12:31:24.888Z,56.80
2018-12-19T12:33:53.207Z,56.70
2018-12-19T12:36:21.515Z,56.60
2018-12-19T12:38:49.818Z,56.60
2018-12-19T12:41:18.143Z,56.50
2018-12-19T12:43:46.550Z,56.60
2018-12-19T12:46:14.853Z,56.70
2018-12-19T12:48:43.186Z,56.80
2018-12-19T12:51:11.634Z,56.70
2018-12-19T12:53:39.972Z,56.60
2018-12-19T12:56:08.274Z,56.60
2018-12-19T12:58:36.628Z,56.70
2018-12-19T13:01:04.920Z,56.80
2018-12-19T13:03:33.244Z,57.00
2018-12-19T13:06:01.559Z,56.90
2018-12-19T13:08:29.868Z,56.80
2018-12-19T13:10:58.154Z,57.40
2018-12-19T13:13:26.456Z,56.80
2018-12-19T13:15:54.839Z,56.90
2018-12-19T13:18:23.180Z,56.90
2018-12-19T13:20:51.537Z,56.90
2018-12-19T13:23:19.862Z,56.90
2018-12-19T13:25:48.190Z,56.90
2018-12-19T13:28:16.494Z,56.90
2018-12-19T13:30:44.779Z,56.90
2018-12-19T13:33:13.062Z,56.90
2018-12-19T13:35:41.410Z,56.90
2018-12-19T13:38:09.708Z,57.50
2018-12-19T13:40:38.019Z,57.00
2018-12-19T13:43:06.464Z,57.00
2018-12-19T13:45:34.794Z,57.00
2018-12-19T13:48:03.076Z,57.00
2018-12-19T13:50:31.369Z,56.80
2018-12-19T13:52:59.660Z,56.90
2018-12-19T13:55:27.978Z,56.90
2018-12-19T13:57:56.319Z,56.90
2018-12-19T14:00:24.618Z,56.90
2018-12-19T14:02:52.981Z,56.90
2018-12-19T14:05:21.292Z,56.90
2018-12-19T14:07:49.623Z,56.90
2018-12-19T14:10:18.185Z,56.90
2018-12-19T14:12:46.556Z,56.90
2018-12-19T14:15:14.851Z,56.90
2018-12-19T14:17:43.145Z,57.40
2018-12-19T14:20:11.446Z,57.10
2018-12-19T14:22:39.752Z,57.00
2018-12-19T14:25:08.089Z,57.00
2018-12-19T14:27:36.441Z,56.90
2018-12-19T14:30:05.305Z,57.00
2018-12-19T14:32:33.704Z,56.90
2018-12-19T14:35:02.002Z,57.00
2018-12-19T14:37:30.302Z,57.10
2018-12-19T14:39:58.643Z,57.10
2018-12-19T14:42:26.936Z,57.00
2018-12-19T14:44:55.466Z,56.80
2018-12-19T14:47:23.846Z,56.90
2018-12-19T14:49:52.194Z,56.90
2018-12-19T14:52:20.686Z,56.90
2018-12-19T14:54:48.986Z,56.90
2018-12-19T14:57:17.319Z,57.00
2018-12-19T14:59:45.712Z,57.00
2018-12-19T15:02:14.019Z,57.00
2018-12-19T15:04:42.372Z,57.00
2018-12-19T15:07:10.725Z,57.00
2018-12-19T15:09:39.060Z,57.00
2018-12-19T15:12:07.363Z,57.10
2018-12-19T15:14:35.686Z,57.10
2018-12-19T15:17:03.992Z,57.20
2018-12-19T15:19:32.412Z,57.10
2018-12-19T15:22:00.742Z,57.00
2018-12-19T15:24:29.061Z,57.00
2018-12-19T15:26:57.374Z,57.00
2018-12-19T15:29:25.654Z,56.90
2018-12-19T15:31:53.952Z,57.50
2018-12-19T15:34:22.271Z,56.90
2018-12-19T15:36:50.602Z,57.20
2018-12-19T15:39:18.912Z,57.00
2018-12-19T15:41:47.212Z,56.90
2018-12-19T15:44:15.532Z,57.00
2018-12-19T15:46:43.838Z,57.00
2018-12-19T15:49:12.248Z,57.00
2018-12-19T15:51:40.586Z,57.00
2018-12-19T15:54:08.934Z,57.20
2018-12-19T15:56:37.448Z,57.20
2018-12-19T15:59:06.199Z,57.00
2018-12-19T16:01:34.586Z,57.00
2018-12-19T16:04:03.005Z,57.00
2018-12-19T16:06:31.310Z,57.00
2018-12-19T16:08:59.653Z,56.90
2018-12-19T16:11:27.950Z,56.90
2018-12-19T16:13:56.326Z,57.00
2018-12-19T16:16:24.657Z,57.00
2018-12-19T16:18:52.955Z,57.00
2018-12-19T16:21:21.421Z,57.00
2018-12-19T16:23:49.752Z,57.00
2018-12-19T16:26:18.083Z,57.00
2018-12-19T16:28:46.395Z,57.00
2018-12-19T16:31:14.750Z,57.00
2018-12-19T16:33:43.070Z,57.10
2018-12-19T16:36:11.395Z,57.00
2018-12-19T16:38:39.730Z,57.00
2018-12-19T16:41:08.062Z,57.00
2018-12-19T16:43:36.388Z,57.10
2018-12-19T16:46:04.707Z,57.00
2018-12-19T16:48:33.338Z,57.00
2018-12-19T16:51:01.773Z,57.00
2018-12-19T16:53:30.360Z,57.10
2018-12-19T16:55:58.702Z,57.10
2018-12-19T16:58:27.081Z,57.00
2018-12-19T17:00:55.474Z,57.00
2018-12-19T17:03:23.843Z,57.00
2018-12-19T17:05:52.198Z,57.00
2018-12-19T17:08:20.570Z,57.10
2018-12-19T17:10:48.914Z,57.20
2018-12-19T17:13:18.268Z,57.10
2018-12-19T17:15:46.603Z,57.00
2018-12-19T17:18:14.955Z,57.00
2018-12-19T17:20:43.323Z,57.00
2018-12-19T17:23:12.285Z,56.90
2018-12-19T17:25:40.609Z,56.90
2018-12-19T17:28:09.066Z,57.00
2018-12-19T17:30:37.506Z,57.00
2018-12-19T17:33:06.009Z,57.00
2018-12-19T17:35:34.366Z,56.90
2018-12-19T17:38:02.714Z,57.00
2018-12-19T17:40:31.045Z,57.00
2018-12-19T17:42:59.709Z,57.00
2018-12-19T17:45:28.144Z,57.00
2018-12-19T17:47:56.518Z,57.10
2018-12-19T17:50:24.891Z,57.20
2018-12-19T17:52:53.268Z,57.10
2018-12-19T17:55:21.631Z,57.00
2018-12-19T17:57:49.985Z,57.00
2018-12-19T18:00:18.353Z,57.00
2018-12-19T18:02:46.658Z,57.00
2018-12-19T18:05:16.122Z,57.00
2018-12-19T18:07:44.566Z,57.00
2018-12-19T18:10:12.953Z,57.00
2018-12-19T18:12:41.382Z,57.00
2018-12-19T18:15:10.358Z,57.00
2018-12-19T18:17:38.825Z,57.00
2018-12-19T18:20:07.307Z,57.10
2018-12-19T18:22:35.993Z,57.00
2018-12-19T18:25:04.434Z,57.10
2018-12-19T18:27:33.534Z,57.10
2018-12-19T18:30:03.383Z,57.20
2018-12-19T18:32:31.987Z,57.00
2018-12-19T18:35:00.383Z,57.00
2018-12-19T18:37:28.786Z,57.00
2018-12-19T18:39:58.224Z,57.00
2018-12-19T18:42:26.968Z,57.00
2018-12-19T18:44:56.427Z,57.00
2018-12-19T18:47:25.168Z,57.00
2018-12-19T18:49:53.599Z,57.00
2018-12-19T18:52:22.073Z,57.00
2018-12-19T18:54:51.244Z,57.00
2018-12-19T18:57:19.670Z,57.00
2018-12-19T18:59:48.097Z,57.00
2018-12-19T19:02:16.624Z,57.00
2018-12-19T19:04:45.701Z,57.10
2018-12-19T19:07:15.752Z,57.00
2018-12-19T19:09:44.848Z,57.00
2018-12-19T19:12:14.020Z,57.70
2018-12-19T19:14:42.700Z,57.00
2018-12-19T19:17:12.816Z,57.10
2018-12-19T19:19:41.325Z,57.70
2018-12-19T19:22:10.224Z,57.10
2018-12-19T19:24:39.226Z,57.20
2018-12-19T19:27:07.738Z,57.20
2018-12-19T19:29:37.432Z,57.00
2018-12-19T19:32:06.153Z,57.00
2018-12-19T19:34:34.983Z,57.00
2018-12-19T19:37:04.025Z,57.00
2018-12-19T19:39:33.555Z,56.90
2018-12-19T19:42:02.912Z,57.10
2018-12-19T19:44:32.714Z,57.00
2018-12-19T19:47:01.155Z,57.10
2018-12-19T19:49:29.653Z,57.00
2018-12-19T19:51:58.119Z,57.00
2018-12-19T19:54:26.588Z,57.10
2018-12-19T19:56:55.026Z,57.10
2018-12-19T19:59:23.503Z,57.10
2018-12-19T20:01:52.962Z,57.20
2018-12-19T20:04:21.456Z,57.20
2018-12-19T20:06:49.893Z,57.30
2018-12-19T20:09:19.340Z,57.10
2018-12-19T20:11:48.112Z,57.00
2018-12-19T20:14:16.676Z,56.90
2018-12-19T20:16:51.334Z,56.90
2018-12-19T20:19:22.008Z,57.00
2018-12-19T20:21:51.464Z,57.00
2018-12-19T20:24:19.976Z,57.10
2018-12-19T20:26:48.494Z,57.00
2018-12-19T20:29:17.229Z,57.60
2018-12-19T20:31:46.917Z,57.00
2018-12-19T20:34:16.224Z,57.10
2018-12-19T20:36:44.713Z,57.10
2018-12-19T20:39:14.718Z,57.10
2018-12-19T20:41:44.556Z,57.20
2018-12-19T20:44:13.574Z,57.10
2018-12-19T20:46:42.830Z,57.00
2018-12-19T20:49:11.291Z,57.00
2018-12-19T20:51:40.653Z,57.00
2018-12-19T20:54:09.962Z,56.90
2018-12-19T20:56:39.133Z,57.00
2018-12-19T20:59:08.064Z,57.00
2018-12-19T21:01:37.673Z,57.00
2018-12-19T21:04:07.176Z,57.10
2018-12-19T21:06:36.223Z,57.00
2018-12-19T21:09:08.653Z,57.00
2018-12-19T21:11:37.229Z,57.10
2018-12-19T21:14:05.666Z,57.10
2018-12-19T21:17:42.077Z,57.10
2018-12-19T21:20:12.225Z,57.20
2018-12-19T21:22:41.126Z,57.20
2018-12-19T21:25:10.984Z,57.10
2018-12-19T21:27:39.888Z,57.00
2018-12-19T21:30:11.174Z,57.00
2018-12-19T21:32:39.666Z,57.00
2018-12-19T21:35:09.372Z,57.10
2018-12-19T21:37:38.077Z,57.20
2018-12-19T21:40:06.541Z,57.20
2018-12-19T21:42:36.927Z,57.10
2018-12-19T21:45:06.868Z,57.10
2018-12-19T21:47:35.367Z,57.20
2018-12-19T21:50:03.928Z,57.20
2018-12-19T21:52:32.484Z,57.20
2018-12-19T21:55:01.222Z,57.50
2018-12-19T21:57:30.436Z,57.60
2018-12-19T22:00:03.504Z,57.50
2018-12-19T22:02:32.932Z,57.40
2018-12-19T22:05:01.516Z,57.40
2018-12-19T22:07:30.358Z,57.30
2018-12-19T22:09:58.914Z,57.30
2018-12-19T22:12:27.343Z,57.30
2018-12-19T22:14:55.742Z,57.40
2018-12-19T22:17:29.621Z,57.40
2018-12-19T22:19:58.045Z,57.50
2018-12-19T22:22:26.457Z,57.40
2018-12-19T22:24:55.398Z,57.30
2018-12-19T22:27:23.790Z,57.20
2018-12-19T22:29:52.144Z,57.30
2018-12-19T22:32:20.701Z,57.30
2018-12-19T22:34:49.136Z,57.40
2018-12-19T22:37:17.560Z,57.50
2018-12-19T22:39:46.026Z,57.40
2018-12-19T22:42:14.884Z,57.40
2018-12-19T22:44:43.389Z,57.20
2018-12-19T22:47:11.715Z,57.20
2018-12-19T22:49:40.178Z,57.10
2018-12-19T22:52:08.604Z,57.20
2018-12-19T22:54:36.997Z,57.20
2018-12-19T22:57:05.408Z,57.20
2018-12-19T22:59:33.726Z,57.20
2018-12-19T23:02:07.521Z,57.20
2018-12-19T23:04:35.872Z,57.30
2018-12-19T23:07:04.255Z,57.20
2018-12-19T23:09:32.617Z,57.30
2018-12-19T23:12:00.976Z,57.40
2018-12-19T23:14:29.271Z,57.40
2018-12-19T23:16:59.615Z,57.40
2018-12-19T23:19:27.950Z,57.40
2018-12-19T23:21:56.359Z,57.30
2018-12-19T23:24:24.782Z,57.30
2018-12-19T23:26:53.167Z,57.40
2018-12-19T23:29:21.589Z,57.40
2018-12-19T23:31:50.023Z,57.50
2018-12-19T23:34:18.386Z,57.60
2018-12-19T23:36:46.685Z,57.50
2018-12-19T23:39:15.118Z,57.40
2018-12-19T23:41:43.500Z,57.30
2018-12-19T23:44:13.884Z,57.10
2018-12-19T23:46:42.253Z,57.10
2018-12-19T23:49:10.590Z,57.10
2018-12-19T23:51:39.133Z,57.20
2018-12-19T23:54:07.524Z,57.30
2018-12-19T23:56:35.914Z,57.30
2018-12-19T23:59:04.323Z,57.30
